Pagrindinis puslapis
METAR-TAF:

METAR-TAF

Oro uostai :

Čita, Rusija

platuma: 52-05N, ilguma: 113-29E, Aukštis: 685 m

Dabartinis oras

Ataskaita buvo paskelbta 28 minutes, ne 23:30 UTC
Vėjas 4 kt iš Pietų/Pietvakarių
Temperatūra -6°C
Drėgmė 41%
Slėgis 1034 hPa
Matomumas 10 km arba daugiau

METAR: UIAA 052330Z 20002MPS 9999 NSC M06/M17 Q1034 R29/CLRD60 NOSIG RMK QFE716/0955

Laikas: 08:58 (23:58 UTC)

Prognozė

Ataskaita buvo paskelbta 58 minutes, ne 23:00 UTC
Prognozė galioja nuo 06 metu 00 UTC su 06 metu 24 UTC
Vėjas 6 kt iš Pietvakarių su gūsio iki 16 kt
Matomumas 10 km arba daugiau
Išsisklaidę debesys ne aukštis 4000 ft, Liūtiniai kamuoliniai debesys.
Laikinai
nuo 06 metu 00 UTC su 06 metu 10 UTC
Vėjas 10 kt iš Šiaurės su gūsio iki 19 kt

TAF: UIAA 052300Z 0600/0624 22003G08MPS 9999 SCT040CB TEMPO 0600/0610 35005G10MPS

Orai ataskaitas ir orų prognozės (METAR, TAF).

turimą stotys yra geltonos ir raudonos taškus žemėlapyje.

Perkelti pele per norėdami pamatyti stoties vardą.

Tada spustelėkite, norėdami matyti oro stebėjimo ir prognozės.

Norėdami pakeisti žemėlapį: spustelėkite ant žalios mygtukų su juodo kryžiaus žemyn,; žalią mygtuką su brūkšneliu, jei norite nutolinti; arba žalių rodyklių gretimoms žemėlapius.


METAR-TAF: